createdAt,value
2022-11-24T00:00:24.880Z,93538.50
2022-11-24T00:01:24.528Z,93656.50
2022-11-24T00:02:21.295Z,93680.13
2022-11-24T00:03:18.328Z,93665.66
2022-11-24T00:04:15.105Z,93563.03
2022-11-24T00:05:11.801Z,93673.97
2022-11-24T00:06:11.644Z,93673.25
2022-11-24T00:07:08.402Z,93659.91
2022-11-24T00:08:05.194Z,93685.22
2022-11-24T00:09:04.103Z,93677.06
2022-11-24T00:10:00.834Z,93661.81
2022-11-24T00:11:13.312Z,93608.94
2022-11-24T00:12:10.001Z,93659.81
2022-11-24T00:13:06.690Z,93596.38
2022-11-24T00:14:05.548Z,93684.00
2022-11-24T00:15:02.392Z,93692.09
2022-11-24T00:16:13.891Z,93668.31
2022-11-24T00:17:10.739Z,93609.16
2022-11-24T00:18:07.601Z,93683.78
2022-11-24T00:19:09.175Z,93673.06
2022-11-24T00:20:06.510Z,93620.75
2022-11-24T00:21:03.234Z,93678.59
2022-11-24T00:22:01.056Z,93686.38
2022-11-24T00:22:57.850Z,93485.88
2022-11-24T00:23:55.166Z,93472.22
2022-11-24T00:24:51.847Z,93648.22
2022-11-24T00:25:48.505Z,93688.34
2022-11-24T00:26:45.215Z,93533.81
2022-11-24T00:27:41.915Z,93685.66
2022-11-24T00:28:40.353Z,93676.19
2022-11-24T00:29:37.192Z,93681.84
2022-11-24T00:30:33.925Z,93690.69
2022-11-24T00:31:35.167Z,93676.91
2022-11-24T00:32:32.009Z,93681.72
2022-11-24T00:33:28.790Z,93691.25
2022-11-24T00:34:25.488Z,93685.56
2022-11-24T00:35:22.430Z,93699.59
2022-11-24T00:36:21.962Z,93755.84
2022-11-24T00:37:18.657Z,93670.66
2022-11-24T00:38:15.328Z,93332.13
2022-11-24T00:39:14.379Z,93696.56
2022-11-24T00:40:11.378Z,93722.81
2022-11-24T00:41:08.548Z,93696.63
2022-11-24T00:42:05.247Z,93536.88
2022-11-24T00:43:02.001Z,93709.94
2022-11-24T00:43:59.383Z,93470.19
2022-11-24T00:44:56.058Z,93698.41
2022-11-24T00:45:52.878Z,93667.75
2022-11-24T00:46:49.801Z,93703.13
2022-11-24T00:47:46.556Z,93696.25
2022-11-24T00:48:43.501Z,93594.28
2022-11-24T00:49:40.214Z,93679.44
2022-11-24T00:50:37.044Z,93698.13
2022-11-24T00:51:33.838Z,93688.34
2022-11-24T00:52:30.529Z,93660.72
2022-11-24T00:53:28.273Z,93418.06
2022-11-24T00:54:25.053Z,93533.91
2022-11-24T00:55:21.746Z,93680.66
2022-11-24T00:56:18.531Z,93648.75
2022-11-24T00:57:15.275Z,93685.50
2022-11-24T00:58:11.997Z,93724.97
2022-11-24T00:59:08.885Z,93577.53
2022-11-24T01:00:06.207Z,93619.75
2022-11-24T01:01:14.932Z,93691.41
2022-11-24T01:02:11.886Z,93604.94
2022-11-24T01:03:08.826Z,93651.50
2022-11-24T01:04:05.956Z,93578.81
2022-11-24T01:05:03.348Z,93674.28
2022-11-24T01:06:26.853Z,93654.19
2022-11-24T01:07:23.681Z,93706.06
2022-11-24T01:08:20.388Z,93697.84
2022-11-24T01:09:17.089Z,93679.75
2022-11-24T01:10:13.778Z,93678.41
2022-11-24T01:11:23.174Z,93704.81
2022-11-24T01:12:20.222Z,93678.00
2022-11-24T01:13:16.960Z,93701.75
2022-11-24T01:14:13.668Z,93687.47
2022-11-24T01:15:10.558Z,93649.44
2022-11-24T01:16:14.412Z,93699.22
2022-11-24T01:17:11.289Z,93680.19
2022-11-24T01:18:08.154Z,93585.47
2022-11-24T01:19:04.853Z,93696.19
2022-11-24T01:20:01.630Z,93694.16
2022-11-24T01:20:58.344Z,93693.41
2022-11-24T01:21:55.037Z,93650.59
2022-11-24T01:22:51.744Z,93710.69
2022-11-24T01:23:48.699Z,93713.28
2022-11-24T01:24:45.850Z,93724.78
2022-11-24T01:25:42.517Z,93689.66
2022-11-24T01:26:39.533Z,93506.59
2022-11-24T01:27:36.284Z,93702.72
2022-11-24T01:28:33.187Z,93699.09
2022-11-24T01:29:29.957Z,93692.31
2022-11-24T01:30:26.673Z,93722.38
2022-11-24T01:31:24.841Z,93705.72
2022-11-24T01:32:21.596Z,93478.34
2022-11-24T01:33:18.305Z,93700.41
2022-11-24T01:34:15.184Z,93712.81
2022-11-24T01:35:11.880Z,93729.28
2022-11-24T01:36:08.626Z,93713.94
2022-11-24T01:37:05.385Z,93713.75
2022-11-24T01:38:02.378Z,93718.81
2022-11-24T01:38:59.230Z,93612.84
2022-11-24T01:39:55.962Z,93729.66
2022-11-24T01:41:06.911Z,93692.00
2022-11-24T01:42:03.961Z,93696.69
2022-11-24T01:43:00.709Z,93661.94
2022-11-24T01:43:57.667Z,93706.56
2022-11-24T01:45:31.841Z,93690.88
2022-11-24T01:46:34.548Z,93693.38
2022-11-24T01:47:38.547Z,93700.16
2022-11-24T01:48:43.719Z,93651.59
2022-11-24T01:49:56.768Z,93694.84
2022-11-24T01:51:09.853Z,93647.00
2022-11-24T01:52:26.227Z,93661.75
2022-11-24T01:53:24.670Z,93695.38
2022-11-24T01:54:45.838Z,93691.00
2022-11-24T01:55:42.662Z,93687.34
2022-11-24T01:56:44.145Z,93687.66
2022-11-24T01:57:55.078Z,93493.38
2022-11-24T01:58:57.904Z,93732.59
2022-11-24T02:00:11.206Z,93552.66
2022-11-24T02:01:08.960Z,93732.63
2022-11-24T02:02:06.782Z,93598.22
2022-11-24T02:03:03.665Z,93707.63
2022-11-24T02:04:05.437Z,93712.34
2022-11-24T02:05:13.190Z,93693.03
2022-11-24T02:06:17.299Z,93467.09
2022-11-24T02:07:15.018Z,93610.97
2022-11-24T02:08:39.028Z,93706.59
2022-11-24T02:10:07.335Z,93698.38
2022-11-24T02:11:05.059Z,93635.81
2022-11-24T02:12:02.699Z,93730.72
2022-11-24T02:13:00.751Z,93684.19
2022-11-24T02:13:57.953Z,93697.91
2022-11-24T02:14:56.160Z,93717.88
2022-11-24T02:15:54.253Z,93659.44
2022-11-24T02:16:53.083Z,93716.53
2022-11-24T02:17:49.869Z,93723.56
2022-11-24T02:18:46.792Z,93644.16
2022-11-24T02:19:55.592Z,93715.50
2022-11-24T02:20:52.348Z,93725.22
2022-11-24T02:21:49.064Z,93733.09
2022-11-24T02:23:10.261Z,93703.47
2022-11-24T02:24:22.017Z,93713.22
2022-11-24T02:25:34.540Z,93705.59
2022-11-24T02:26:41.292Z,93708.09
2022-11-24T02:27:38.144Z,93600.88
2022-11-24T02:28:34.881Z,93677.63
2022-11-24T02:29:31.890Z,93707.13
2022-11-24T02:30:28.827Z,93743.88
2022-11-24T02:31:26.103Z,93611.03
2022-11-24T02:32:23.435Z,93382.94
2022-11-24T02:33:22.565Z,93737.72
2022-11-24T02:34:19.268Z,93733.63
2022-11-24T02:35:17.183Z,93650.09
2022-11-24T02:36:14.020Z,93740.28
2022-11-24T02:37:10.772Z,93647.66
2022-11-24T02:38:10.404Z,93681.75
2022-11-24T02:39:17.318Z,93700.31
2022-11-24T02:40:25.086Z,93702.38
2022-11-24T02:41:27.685Z,93649.28
2022-11-24T02:42:28.692Z,93615.09
2022-11-24T02:43:30.521Z,93527.75
2022-11-24T02:44:35.897Z,93747.25
2022-11-24T02:45:32.711Z,93685.41
2022-11-24T02:46:29.643Z,93709.00
2022-11-24T02:47:26.826Z,93630.66
2022-11-24T02:48:23.787Z,93735.88
2022-11-24T02:49:20.528Z,93620.91
2022-11-24T02:50:17.345Z,93632.53
2022-11-24T02:51:14.089Z,93727.72
2022-11-24T02:52:10.773Z,93501.69
2022-11-24T02:53:07.674Z,93678.31
2022-11-24T02:54:04.403Z,93697.69
2022-11-24T02:55:01.130Z,93715.91
2022-11-24T02:55:57.833Z,93619.47
2022-11-24T02:56:55.485Z,93731.53
2022-11-24T02:57:52.206Z,93707.78
2022-11-24T02:58:48.881Z,93741.81
2022-11-24T02:59:46.653Z,93714.19
2022-11-24T03:00:43.381Z,93742.19
2022-11-24T03:01:40.134Z,93475.31
2022-11-24T03:02:36.931Z,93730.25
2022-11-24T03:03:33.812Z,93557.56
2022-11-24T03:04:30.508Z,93732.00
2022-11-24T03:05:27.235Z,93745.25
2022-11-24T03:06:23.931Z,93629.97
2022-11-24T03:07:20.734Z,93726.19
2022-11-24T03:08:17.736Z,93637.28
2022-11-24T03:09:14.752Z,93582.47
2022-11-24T03:10:11.505Z,93638.59
2022-11-24T03:11:08.288Z,93709.44
2022-11-24T03:12:05.117Z,93725.47
2022-11-24T03:13:01.815Z,93745.69
2022-11-24T03:13:58.684Z,93460.44
2022-11-24T03:14:55.448Z,93680.84
2022-11-24T03:15:52.222Z,93770.16
2022-11-24T03:16:49.009Z,93532.28
2022-11-24T03:17:45.728Z,93725.44
2022-11-24T03:18:42.423Z,93744.22
2022-11-24T03:19:39.123Z,93679.66
2022-11-24T03:20:35.928Z,93666.09
2022-11-24T03:21:32.638Z,93711.50
2022-11-24T03:22:29.369Z,93755.47
2022-11-24T03:23:26.551Z,93742.16
2022-11-24T03:24:23.341Z,93760.53
2022-11-24T03:25:20.097Z,93758.13
2022-11-24T03:26:19.956Z,93752.63
2022-11-24T03:27:16.672Z,93746.00
2022-11-24T03:28:13.364Z,93735.88
2022-11-24T03:29:10.056Z,93717.75
2022-11-24T03:30:07.781Z,93715.56
2022-11-24T03:31:05.244Z,93744.63
2022-11-24T03:32:02.706Z,93748.06
2022-11-24T03:32:59.408Z,93747.75
2022-11-24T03:33:56.461Z,93763.53
2022-11-24T03:34:53.152Z,93770.47
2022-11-24T03:35:49.844Z,93691.34
2022-11-24T03:36:46.652Z,93755.28
2022-11-24T03:37:43.458Z,93739.56
2022-11-24T03:38:40.281Z,93751.34
2022-11-24T03:39:37.088Z,93763.63
2022-11-24T03:40:33.787Z,93734.47
2022-11-24T03:41:30.504Z,93760.44
2022-11-24T03:42:27.197Z,93637.09
2022-11-24T03:43:23.886Z,93714.91
2022-11-24T03:44:20.610Z,93765.34
2022-11-24T03:45:44.359Z,93733.88
2022-11-24T03:46:34.274Z,93759.41
2022-11-24T03:47:31.199Z,93761.66
2022-11-24T03:48:27.888Z,93725.44
2022-11-24T03:49:24.575Z,93742.13
2022-11-24T03:50:21.271Z,93768.28
2022-11-24T03:51:17.968Z,93780.31
2022-11-24T03:52:15.350Z,93717.25
2022-11-24T03:53:12.041Z,93768.03
2022-11-24T03:54:08.800Z,93772.22
2022-11-24T03:55:06.104Z,93758.28
2022-11-24T03:56:03.783Z,93742.69
2022-11-24T03:57:00.495Z,93737.44
2022-11-24T03:57:57.180Z,93741.75
2022-11-24T03:58:54.161Z,93732.41
2022-11-24T03:59:50.866Z,93737.09
2022-11-24T04:00:52.641Z,93759.25
2022-11-24T04:01:49.466Z,93722.38
2022-11-24T04:02:46.359Z,93602.50
2022-11-24T04:03:43.121Z,93755.69
2022-11-24T04:04:40.048Z,93726.03
2022-11-24T04:05:37.188Z,93695.59
2022-11-24T04:06:33.911Z,93713.13
2022-11-24T04:07:30.658Z,93812.97
2022-11-24T04:08:27.434Z,93695.59
2022-11-24T04:09:24.169Z,93789.50
2022-11-24T04:10:20.872Z,93680.13
2022-11-24T04:11:36.451Z,93796.88
2022-11-24T04:12:45.380Z,93715.09
2022-11-24T04:13:42.086Z,93766.41
2022-11-24T04:14:38.806Z,93780.28
2022-11-24T04:15:35.486Z,93741.13
2022-11-24T04:16:32.238Z,93792.38
2022-11-24T04:17:29.023Z,93722.72
2022-11-24T04:18:25.873Z,93767.59
2022-11-24T04:19:22.610Z,93778.13
2022-11-24T04:20:19.338Z,93787.31
2022-11-24T04:21:16.028Z,93773.16
2022-11-24T04:22:12.870Z,93804.81
2022-11-24T04:23:10.300Z,93793.53
2022-11-24T04:24:07.134Z,93788.28
2022-11-24T04:25:05.019Z,93788.16
2022-11-24T04:26:01.730Z,93787.72
2022-11-24T04:26:58.452Z,93627.78
2022-11-24T04:27:56.593Z,93795.03
2022-11-24T04:28:53.333Z,93804.66
2022-11-24T04:29:51.080Z,93824.91
2022-11-24T04:30:47.785Z,93807.00
2022-11-24T04:31:44.642Z,93805.53
2022-11-24T04:32:41.348Z,93807.59
2022-11-24T04:33:38.086Z,93630.22
2022-11-24T04:34:36.129Z,93791.47
2022-11-24T04:35:33.094Z,93800.59
2022-11-24T04:36:29.879Z,93787.47
2022-11-24T04:37:26.686Z,93812.47
2022-11-24T04:39:23.767Z,93688.44
2022-11-24T04:39:43.719Z,93834.31
2022-11-24T04:40:40.430Z,93665.50
2022-11-24T04:41:37.152Z,93817.66
2022-11-24T04:42:33.945Z,93787.72
2022-11-24T04:43:34.163Z,93805.53
2022-11-24T04:44:34.586Z,93831.13
2022-11-24T04:45:31.349Z,93818.75
2022-11-24T04:46:28.176Z,93805.69
2022-11-24T04:47:26.302Z,93806.25
2022-11-24T04:48:23.059Z,93741.47
2022-11-24T04:49:19.861Z,93798.22
2022-11-24T04:50:17.215Z,93741.16
2022-11-24T04:51:15.274Z,93813.03
2022-11-24T04:52:11.971Z,93813.19
2022-11-24T04:53:10.147Z,93628.22
2022-11-24T04:54:08.220Z,93832.22
2022-11-24T04:55:05.202Z,93754.81
2022-11-24T04:56:05.982Z,93771.50
2022-11-24T04:57:02.741Z,93830.13
2022-11-24T04:57:59.477Z,93798.97
2022-11-24T04:58:56.201Z,93806.41
2022-11-24T04:59:53.931Z,93823.88
2022-11-24T05:00:50.662Z,93813.38
2022-11-24T05:01:48.037Z,93753.47
2022-11-24T05:02:44.765Z,93831.88
2022-11-24T05:03:41.526Z,93820.69
2022-11-24T05:04:38.395Z,93827.78
2022-11-24T05:05:35.308Z,93822.63
2022-11-24T05:06:33.210Z,93831.19
2022-11-24T05:07:30.084Z,93772.16
2022-11-24T05:08:27.110Z,93830.63
2022-11-24T05:09:32.596Z,93811.34
2022-11-24T05:10:40.777Z,93840.28
2022-11-24T05:11:37.473Z,93839.53
2022-11-24T05:12:34.315Z,93832.88
2022-11-24T05:13:31.663Z,93683.50
2022-11-24T05:14:28.502Z,93808.63
2022-11-24T05:15:26.053Z,93836.72
2022-11-24T05:16:23.331Z,93849.75
2022-11-24T05:17:20.145Z,93833.63
2022-11-24T05:18:17.010Z,93797.25
2022-11-24T05:19:14.224Z,93812.94
2022-11-24T05:20:11.201Z,93830.25
2022-11-24T05:21:07.930Z,93838.09
2022-11-24T05:22:04.651Z,93705.06
2022-11-24T05:23:03.880Z,93826.88
2022-11-24T05:24:00.714Z,93825.53
2022-11-24T05:24:58.438Z,93705.38
2022-11-24T05:26:00.114Z,93683.44
2022-11-24T05:26:57.006Z,93836.56
2022-11-24T05:27:53.781Z,93820.19
2022-11-24T05:28:50.516Z,93820.28
2022-11-24T05:29:47.403Z,93851.88
2022-11-24T05:30:45.148Z,93774.19
2022-11-24T05:31:41.928Z,93840.34
2022-11-24T05:32:38.773Z,93762.84
2022-11-24T05:33:35.587Z,93812.00
2022-11-24T05:34:33.579Z,93853.75
2022-11-24T05:35:30.599Z,93844.38
2022-11-24T05:36:45.781Z,93820.06
2022-11-24T05:37:42.572Z,93717.69
2022-11-24T05:38:39.363Z,93635.50
2022-11-24T05:39:37.337Z,93812.50
2022-11-24T05:40:34.057Z,93758.06
2022-11-24T05:41:30.868Z,93817.19
2022-11-24T05:42:47.191Z,93816.19
2022-11-24T05:43:44.647Z,93862.78
2022-11-24T05:44:41.454Z,93819.00
2022-11-24T05:45:38.278Z,93732.72
2022-11-24T05:46:35.059Z,93855.16
2022-11-24T05:47:32.169Z,93662.72
2022-11-24T05:48:28.943Z,93835.59
2022-11-24T05:49:25.769Z,93741.88
2022-11-24T05:50:23.233Z,93849.38
2022-11-24T05:51:20.034Z,93862.59
2022-11-24T05:52:16.951Z,93783.94
2022-11-24T05:53:14.047Z,93868.84
2022-11-24T05:54:13.599Z,93848.34
2022-11-24T05:55:16.195Z,93770.09
2022-11-24T05:56:13.082Z,93866.31
2022-11-24T05:57:09.887Z,93846.16
2022-11-24T05:58:08.736Z,93652.81
2022-11-24T05:59:09.779Z,93668.53
2022-11-24T06:00:08.756Z,93849.34
2022-11-24T06:01:07.099Z,93832.34
2022-11-24T06:02:05.768Z,93858.72
2022-11-24T06:03:03.082Z,93863.22
2022-11-24T06:04:02.926Z,93757.34
2022-11-24T06:04:59.732Z,93779.84
2022-11-24T06:05:56.442Z,93873.66
2022-11-24T06:06:53.180Z,93848.91
2022-11-24T06:07:50.007Z,93867.72
2022-11-24T06:08:46.858Z,93872.88
2022-11-24T06:09:44.078Z,93882.78
2022-11-24T06:10:40.854Z,93879.47
2022-11-24T06:11:37.602Z,93875.56
2022-11-24T06:12:34.374Z,93868.81
2022-11-24T06:13:31.359Z,93815.63
2022-11-24T06:14:28.252Z,93895.28
2022-11-24T06:15:25.254Z,93776.28
2022-11-24T06:16:22.167Z,93793.69
2022-11-24T06:17:19.283Z,93811.19
2022-11-24T06:18:16.484Z,93621.03
2022-11-24T06:19:15.204Z,93871.91
2022-11-24T06:20:12.087Z,93820.06
2022-11-24T06:21:12.218Z,93723.34
2022-11-24T06:22:09.215Z,93813.81
2022-11-24T06:23:05.956Z,93856.44
2022-11-24T06:24:05.129Z,93816.72
2022-11-24T06:25:01.926Z,93663.81
2022-11-24T06:26:00.131Z,93883.78
2022-11-24T06:26:56.968Z,93752.19
2022-11-24T06:27:56.641Z,93859.72
2022-11-24T06:28:53.482Z,93879.56
2022-11-24T06:29:53.079Z,93859.56
2022-11-24T06:30:51.358Z,93812.06
2022-11-24T06:31:48.178Z,93636.06
2022-11-24T06:32:49.923Z,93911.06
2022-11-24T06:33:49.648Z,93847.31
2022-11-24T06:34:49.371Z,93915.38
2022-11-24T06:35:49.021Z,93788.63
2022-11-24T06:36:48.336Z,93586.34
2022-11-24T06:37:48.493Z,93937.88
2022-11-24T06:38:47.372Z,93911.41
2022-11-24T06:39:46.818Z,93918.81
2022-11-24T06:40:43.596Z,93905.63
2022-11-24T06:41:42.685Z,93911.25
2022-11-24T06:42:39.403Z,93841.25
2022-11-24T06:43:39.253Z,93695.72
2022-11-24T06:44:40.099Z,93903.31
2022-11-24T06:45:40.028Z,93858.22
2022-11-24T06:46:39.762Z,93936.16
2022-11-24T06:47:37.724Z,93904.69
2022-11-24T06:48:34.584Z,93773.47
2022-11-24T06:49:33.847Z,93917.44
2022-11-24T06:50:33.689Z,93711.75
2022-11-24T06:51:32.745Z,93890.66
2022-11-24T06:52:29.585Z,93943.22
2022-11-24T06:53:41.532Z,93843.78
2022-11-24T06:54:38.269Z,93939.31
2022-11-24T06:55:41.871Z,93731.84
2022-11-24T06:56:44.309Z,93874.31
2022-11-24T06:57:41.257Z,93937.50
2022-11-24T06:58:43.469Z,93957.44
2022-11-24T06:59:40.242Z,93952.75
2022-11-24T07:00:39.873Z,93927.19
2022-11-24T07:01:39.740Z,93953.09
2022-11-24T07:02:44.188Z,93960.81
2022-11-24T07:03:42.709Z,93863.47
2022-11-24T07:04:39.450Z,93777.44
2022-11-24T07:05:36.185Z,93955.00
2022-11-24T07:06:35.723Z,93950.72
2022-11-24T07:07:35.539Z,93953.25
2022-11-24T07:08:54.759Z,93966.56
2022-11-24T07:09:55.092Z,93932.44
2022-11-24T07:10:52.925Z,93909.66
2022-11-24T07:11:53.016Z,93895.31
2022-11-24T07:12:52.521Z,93901.03
2022-11-24T07:13:59.626Z,93973.81
2022-11-24T07:14:56.976Z,93961.47
2022-11-24T07:16:12.294Z,93969.13
2022-11-24T07:17:12.346Z,93914.25
2022-11-24T07:18:15.169Z,93930.56
2022-11-24T07:19:12.096Z,93930.09
2022-11-24T07:20:15.475Z,93987.50
2022-11-24T07:21:12.444Z,93931.59
2022-11-24T07:22:09.194Z,93798.97
2022-11-24T07:23:09.335Z,93992.16
2022-11-24T07:24:06.682Z,93879.00
2022-11-24T07:26:02.347Z,93995.50
2022-11-24T07:26:29.871Z,93977.94
2022-11-24T07:27:33.678Z,93971.84
2022-11-24T07:28:32.747Z,93924.47
2022-11-24T07:29:43.015Z,93989.66
2022-11-24T07:30:40.917Z,93896.25
2022-11-24T07:31:38.065Z,94008.22
2022-11-24T07:32:37.593Z,93940.53
2022-11-24T07:33:39.405Z,93913.47
2022-11-24T07:34:36.465Z,93924.66
2022-11-24T07:35:33.787Z,93923.44
2022-11-24T07:36:53.023Z,94001.88
2022-11-24T07:37:50.758Z,93998.19
2022-11-24T07:38:53.374Z,93999.59
2022-11-24T07:39:53.181Z,93932.41
2022-11-24T07:40:52.558Z,93968.31
2022-11-24T07:41:57.976Z,93894.94
2022-11-24T07:42:57.353Z,94036.06
2022-11-24T07:43:56.167Z,93927.75
2022-11-24T07:44:52.996Z,94032.94
2022-11-24T07:45:56.056Z,94011.41
2022-11-24T07:46:55.832Z,94033.97
2022-11-24T07:47:52.608Z,94013.22
2022-11-24T07:48:49.436Z,94007.44
2022-11-24T07:49:46.436Z,94039.19
2022-11-24T07:50:43.427Z,94011.88
2022-11-24T07:51:40.306Z,93656.50
2022-11-24T07:52:37.938Z,94012.75
2022-11-24T07:53:36.386Z,93920.75
2022-11-24T07:54:33.507Z,93962.63
2022-11-24T07:55:33.651Z,93844.22
2022-11-24T07:56:38.861Z,93801.41
2022-11-24T07:57:35.836Z,93861.78
2022-11-24T07:58:37.339Z,93682.16
2022-11-24T07:59:37.776Z,93982.13
2022-11-24T08:00:45.011Z,93877.84
2022-11-24T08:01:44.327Z,93741.06
2022-11-24T08:02:41.101Z,94010.13
2022-11-24T08:03:40.662Z,93952.50
2022-11-24T08:04:42.528Z,94022.38
2022-11-24T08:06:07.833Z,93966.72
2022-11-24T08:07:05.952Z,93851.72
2022-11-24T08:08:02.767Z,93878.41
2022-11-24T08:08:59.934Z,93995.81
2022-11-24T08:09:56.695Z,93848.50
2022-11-24T08:10:53.481Z,93889.84
2022-11-24T08:11:50.211Z,94057.13
2022-11-24T08:12:49.286Z,94076.59
2022-11-24T08:13:46.157Z,94070.81
2022-11-24T08:14:44.238Z,93975.53
2022-11-24T08:15:44.365Z,94021.69
2022-11-24T08:16:41.175Z,94024.31
2022-11-24T08:17:38.021Z,94050.44
2022-11-24T08:18:38.971Z,93987.53
2022-11-24T08:19:35.885Z,94047.81
2022-11-24T08:20:37.416Z,93760.16
2022-11-24T08:21:36.754Z,94042.47
2022-11-24T08:22:33.537Z,94084.31
2022-11-24T08:23:31.264Z,94041.19
2022-11-24T08:24:28.490Z,93807.69
2022-11-24T08:25:32.841Z,94065.59
2022-11-24T08:26:29.622Z,94073.00
2022-11-24T08:27:26.561Z,94070.47
2022-11-24T08:28:24.040Z,93974.66
2022-11-24T08:29:20.867Z,93707.19
2022-11-24T08:30:17.659Z,94077.97
2022-11-24T08:31:19.209Z,94077.31
2022-11-24T08:32:20.599Z,93994.75
2022-11-24T08:33:19.182Z,93867.09
2022-11-24T08:34:15.975Z,94085.47
2022-11-24T08:35:14.398Z,94006.50
2022-11-24T08:36:15.477Z,94092.69
2022-11-24T08:37:12.531Z,94081.63
2022-11-24T08:38:09.315Z,94081.28
2022-11-24T08:39:06.042Z,94101.59
2022-11-24T08:40:02.905Z,94091.91
2022-11-24T08:41:01.847Z,93563.31
2022-11-24T08:41:58.595Z,94100.22
2022-11-24T08:42:59.656Z,94107.84
2022-11-24T08:43:57.541Z,93928.88
2022-11-24T08:44:59.017Z,94113.31
2022-11-24T08:45:59.746Z,94103.72
2022-11-24T08:46:56.624Z,94076.38
2022-11-24T08:47:57.811Z,94053.78
2022-11-24T08:48:55.428Z,94097.38
2022-11-24T08:49:52.226Z,94108.66
2022-11-24T08:50:49.057Z,94084.72
2022-11-24T08:51:48.555Z,93879.78
2022-11-24T08:52:45.391Z,94110.47
2022-11-24T08:53:43.780Z,94089.72
2022-11-24T08:54:40.909Z,94116.81
2022-11-24T08:55:37.735Z,94101.22
2022-11-24T08:56:34.565Z,93932.19
2022-11-24T08:57:31.322Z,93887.84
2022-11-24T08:58:29.169Z,94098.31
2022-11-24T08:59:26.030Z,94084.97
2022-11-24T09:00:23.782Z,94057.72
2022-11-24T09:01:21.449Z,94089.88
2022-11-24T09:02:18.234Z,94112.72
2022-11-24T09:03:14.963Z,94048.69
2022-11-24T09:04:12.521Z,94093.31
2022-11-24T09:05:28.783Z,94083.75
2022-11-24T09:06:30.942Z,94119.44
2022-11-24T09:07:27.960Z,94093.81
2022-11-24T09:08:24.670Z,93935.25
2022-11-24T09:09:21.491Z,94064.78
2022-11-24T09:10:18.323Z,93859.53
2022-11-24T09:11:17.221Z,94116.38
2022-11-24T09:12:14.679Z,94120.81
2022-11-24T09:13:11.861Z,94106.13
2022-11-24T09:14:08.729Z,94097.19
2022-11-24T09:15:06.114Z,93974.72
2022-11-24T09:16:08.536Z,94004.75
2022-11-24T09:17:05.503Z,94061.25
2022-11-24T09:18:02.532Z,94068.84
2022-11-24T09:19:03.152Z,94104.25
2022-11-24T09:19:59.910Z,94116.38
2022-11-24T09:21:26.398Z,94096.38
2022-11-24T09:22:23.086Z,94052.47
2022-11-24T09:23:19.806Z,94110.28
2022-11-24T09:24:17.308Z,94101.34
2022-11-24T09:25:14.969Z,94119.72
2022-11-24T09:26:15.406Z,94082.03
2022-11-24T09:27:12.482Z,94105.03
2022-11-24T09:28:09.237Z,94046.75
2022-11-24T09:29:08.134Z,94123.41
2022-11-24T09:30:06.020Z,93909.31
2022-11-24T09:31:05.523Z,93964.00
2022-11-24T09:32:06.687Z,94102.63
2022-11-24T09:33:04.040Z,94124.72
2022-11-24T09:34:01.664Z,94109.56
2022-11-24T09:34:58.523Z,94087.41
2022-11-24T09:35:55.308Z,93876.66
2022-11-24T09:36:52.116Z,93942.72
2022-11-24T09:37:49.158Z,94129.13
2022-11-24T09:38:46.348Z,94126.28
2022-11-24T09:39:43.235Z,94093.50
2022-11-24T09:40:39.928Z,93939.81
2022-11-24T09:41:58.075Z,94110.25
2022-11-24T09:43:16.757Z,94103.41
2022-11-24T09:44:22.497Z,94113.22
2022-11-24T09:46:05.515Z,93908.56
2022-11-24T09:47:24.683Z,94111.09
2022-11-24T09:48:29.522Z,94109.13
2022-11-24T09:49:51.421Z,94112.63
2022-11-24T09:50:50.790Z,93919.97
2022-11-24T09:51:52.785Z,94058.44
2022-11-24T09:53:03.744Z,93961.22
2022-11-24T09:54:03.312Z,94115.63
2022-11-24T09:55:05.066Z,94057.66
2022-11-24T09:56:30.850Z,94123.50
2022-11-24T09:57:37.477Z,94109.75
2022-11-24T09:58:45.408Z,94128.16
2022-11-24T09:59:42.997Z,93946.34
2022-11-24T10:00:41.307Z,94115.13
2022-11-24T10:01:41.993Z,94145.00
2022-11-24T10:02:39.110Z,93925.94
2022-11-24T10:03:43.926Z,93936.53
2022-11-24T10:04:44.957Z,94081.13
2022-11-24T10:05:44.886Z,94148.34
2022-11-24T10:07:08.956Z,94132.44
2022-11-24T10:08:31.640Z,94133.88
2022-11-24T10:09:40.219Z,94124.47
2022-11-24T10:11:05.430Z,94116.41
2022-11-24T10:12:14.203Z,94130.22
2022-11-24T10:13:28.678Z,94131.28
2022-11-24T10:14:56.010Z,94134.69
2022-11-24T10:16:12.520Z,94129.66
2022-11-24T10:17:22.043Z,94132.19
2022-11-24T10:18:37.741Z,94157.47
2022-11-24T10:19:46.218Z,94059.56
2022-11-24T10:21:04.673Z,94135.56
2022-11-24T10:22:32.385Z,94133.81
2022-11-24T10:23:50.435Z,94140.72
2022-11-24T10:25:24.685Z,94148.50
2022-11-24T10:26:36.434Z,94122.13
2022-11-24T10:27:45.067Z,94144.03
2022-11-24T10:28:47.981Z,94084.31
2022-11-24T10:29:51.235Z,94121.59
2022-11-24T10:30:49.850Z,93953.19
2022-11-24T10:31:57.394Z,94150.81
2022-11-24T10:33:15.828Z,93947.00
2022-11-24T10:34:41.534Z,94150.78
2022-11-24T10:35:48.237Z,94157.53
2022-11-24T10:36:59.854Z,94109.50
2022-11-24T10:38:20.158Z,94091.81
2022-11-24T10:39:31.157Z,94144.25
2022-11-24T10:40:58.798Z,94142.13
2022-11-24T10:42:14.263Z,94157.88
2022-11-24T10:43:19.283Z,93990.25
2022-11-24T10:44:18.670Z,94153.59
2022-11-24T10:45:24.257Z,94177.63
2022-11-24T10:46:31.413Z,94080.06
2022-11-24T10:47:31.016Z,93962.59
2022-11-24T10:48:51.907Z,94019.72
2022-11-24T10:50:12.076Z,94140.56
2022-11-24T10:51:36.265Z,94060.63
2022-11-24T10:52:44.345Z,94160.81
2022-11-24T10:53:43.604Z,94177.44
2022-11-24T10:55:05.997Z,94140.69
2022-11-24T10:56:05.054Z,94006.38
2022-11-24T10:57:02.178Z,94145.16
2022-11-24T10:58:18.010Z,94130.03
2022-11-24T10:59:30.476Z,94153.09
2022-11-24T11:00:32.928Z,94074.16
2022-11-24T11:01:35.632Z,94179.59
2022-11-24T11:02:34.952Z,94156.97
2022-11-24T11:03:45.351Z,94149.28
2022-11-24T11:04:44.768Z,94038.88
2022-11-24T11:06:00.497Z,93963.44
2022-11-24T11:07:11.105Z,94156.69
2022-11-24T11:08:14.354Z,94172.00
2022-11-24T11:09:19.847Z,94024.91
2022-11-24T11:10:24.167Z,94145.56
2022-11-24T11:11:27.185Z,94183.50
2022-11-24T11:12:43.909Z,94172.41
2022-11-24T11:14:04.240Z,93552.09
2022-11-24T11:15:23.034Z,94131.25
2022-11-24T11:16:41.946Z,94140.16
2022-11-24T11:17:43.968Z,93840.59
2022-11-24T11:18:50.607Z,94144.44
2022-11-24T11:19:58.563Z,94183.91
2022-11-24T11:21:05.500Z,94044.63
2022-11-24T11:22:11.272Z,94164.44
2022-11-24T11:23:27.085Z,93985.38
2022-11-24T11:24:23.984Z,94182.44
2022-11-24T11:25:32.312Z,94173.81
2022-11-24T11:26:38.217Z,94122.63
2022-11-24T11:27:34.980Z,94032.38
2022-11-24T11:28:36.684Z,94106.84
2022-11-24T11:31:21.755Z,94189.25
2022-11-24T11:34:02.846Z,94156.69
2022-11-24T11:35:05.048Z,94169.69
2022-11-24T11:36:15.633Z,94145.47
2022-11-24T11:37:18.185Z,94105.84
2022-11-24T11:38:16.882Z,94163.78
2022-11-24T11:39:29.551Z,94161.75
2022-11-24T11:40:36.865Z,94171.78
2022-11-24T11:41:40.269Z,94032.63
2022-11-24T11:43:04.728Z,94185.28
2022-11-24T11:44:28.806Z,94104.63
2022-11-24T11:45:35.292Z,94110.72
2022-11-24T11:46:37.573Z,94029.56
2022-11-24T11:47:37.300Z,94006.72
2022-11-24T11:48:47.256Z,94139.28
2022-11-24T11:49:45.290Z,94164.59
2022-11-24T11:51:23.631Z,94102.69
2022-11-24T11:52:39.641Z,94171.59
2022-11-24T11:54:22.784Z,94168.09
2022-11-24T11:55:52.211Z,94174.78
2022-11-24T11:57:05.461Z,94178.88
2022-11-24T11:58:18.577Z,94172.59